createdAt,value
2023-04-03T00:01:46.355Z,2.03
2023-04-03T00:04:17.097Z,1.90
2023-04-03T00:06:49.056Z,2.13
2023-04-03T00:09:19.643Z,1.80
2023-04-03T00:11:50.260Z,1.80
2023-04-03T00:14:22.835Z,1.70
2023-04-03T00:16:53.489Z,1.97
2023-04-03T00:19:24.623Z,1.63
2023-04-03T00:21:55.393Z,2.20
2023-04-03T00:24:26.206Z,1.70
2023-04-03T00:26:56.857Z,2.23
2023-04-03T00:29:27.515Z,1.90
2023-04-03T00:31:58.215Z,1.80
2023-04-03T00:34:28.871Z,1.67
2023-04-03T00:37:00.185Z,2.30
2023-04-03T00:39:31.483Z,2.03
2023-04-03T00:42:03.607Z,2.27
2023-04-03T00:44:37.162Z,2.20
2023-04-03T00:47:11.955Z,1.63
2023-04-03T00:49:44.545Z,1.90
2023-04-03T00:52:18.162Z,1.80
2023-04-03T00:54:50.919Z,2.27
2023-04-03T00:57:22.910Z,2.27
2023-04-03T00:59:59.527Z,1.87
2023-04-03T01:02:30.283Z,2.60
2023-04-03T01:05:01.266Z,2.00
2023-04-03T01:07:34.535Z,2.10
2023-04-03T01:10:08.152Z,1.77
2023-04-03T01:12:41.372Z,2.10
2023-04-03T01:15:16.287Z,1.90
2023-04-03T01:17:57.252Z,2.07
2023-04-03T01:20:36.900Z,1.90
2023-04-03T01:23:14.487Z,2.00
2023-04-03T01:25:52.332Z,2.23
2023-04-03T01:28:31.412Z,2.80
2023-04-03T01:31:13.874Z,2.00
2023-04-03T01:33:45.256Z,2.30
2023-04-03T01:36:21.664Z,1.90
2023-04-03T01:38:53.167Z,1.60
2023-04-03T01:41:24.383Z,2.10
2023-04-03T01:43:54.844Z,1.70
2023-04-03T01:46:28.515Z,2.00
2023-04-03T01:48:59.632Z,2.10
2023-04-03T01:51:30.700Z,2.77
2023-04-03T01:54:01.280Z,1.80
2023-04-03T01:56:32.139Z,1.80
2023-04-03T01:59:02.594Z,2.20
2023-04-03T02:01:34.293Z,1.73
2023-04-03T02:04:04.936Z,1.70
2023-04-03T02:06:35.958Z,2.00
2023-04-03T02:09:06.866Z,1.83
2023-04-03T02:11:38.444Z,1.63
2023-04-03T02:14:09.859Z,1.87
2023-04-03T02:16:40.504Z,1.57
2023-04-03T02:19:11.495Z,1.70
2023-04-03T02:21:42.034Z,1.70
2023-04-03T02:24:13.043Z,1.70
2023-04-03T02:26:43.611Z,1.83
2023-04-03T02:29:15.257Z,1.90
2023-04-03T02:31:46.038Z,2.17
2023-04-03T02:34:16.976Z,1.80
2023-04-03T02:36:47.509Z,1.80
2023-04-03T02:39:18.118Z,2.30
2023-04-03T02:41:48.628Z,2.37
2023-04-03T02:44:20.794Z,2.00
2023-04-03T02:46:51.465Z,1.90
2023-04-03T02:49:22.231Z,1.80
2023-04-03T02:51:53.504Z,2.30
2023-04-03T02:54:25.286Z,2.03
2023-04-03T02:56:55.849Z,1.90
2023-04-03T02:59:26.485Z,1.90
2023-04-03T03:01:57.403Z,1.90
2023-04-03T03:04:27.940Z,1.87
2023-04-03T03:06:58.468Z,1.87
2023-04-03T03:09:30.354Z,1.77
2023-04-03T03:12:03.266Z,2.40
2023-04-03T03:14:33.720Z,1.70
2023-04-03T03:17:04.326Z,1.70
2023-04-03T03:19:34.849Z,1.53
2023-04-03T03:22:05.371Z,2.23
2023-04-03T03:24:36.495Z,1.70
2023-04-03T03:27:08.071Z,1.83
2023-04-03T03:29:38.544Z,1.83
2023-04-03T03:32:10.218Z,1.97
2023-04-03T03:34:40.832Z,1.90
2023-04-03T03:37:11.368Z,2.20
2023-04-03T03:39:41.897Z,1.87
2023-04-03T03:42:17.412Z,1.97
2023-04-03T03:44:47.929Z,2.07
2023-04-03T03:47:18.483Z,2.03
2023-04-03T03:49:49.084Z,2.23
2023-04-03T03:52:19.822Z,2.27
2023-04-03T03:54:50.511Z,1.87
2023-04-03T03:57:21.642Z,1.90
2023-04-03T03:59:53.714Z,1.80
2023-04-03T04:02:24.519Z,1.80
2023-04-03T04:04:55.109Z,1.87
2023-04-03T04:07:25.732Z,2.00
2023-04-03T04:09:57.868Z,1.87
2023-04-03T04:12:28.500Z,1.80
2023-04-03T04:14:58.983Z,1.60
2023-04-03T04:17:29.741Z,2.10
2023-04-03T04:20:00.322Z,1.70
2023-04-03T04:22:31.053Z,1.73
2023-04-03T04:25:03.229Z,2.03
2023-04-03T04:27:33.800Z,2.17
2023-04-03T04:30:05.386Z,1.90
2023-04-03T04:32:36.699Z,2.03
2023-04-03T04:35:08.712Z,1.80
2023-04-03T04:37:39.248Z,2.13
2023-04-03T04:40:10.466Z,1.90
2023-04-03T04:42:41.198Z,1.90
2023-04-03T04:45:12.045Z,1.70
2023-04-03T04:47:42.671Z,2.20
2023-04-03T04:50:13.787Z,1.70
2023-04-03T04:52:44.346Z,1.53
2023-04-03T04:55:14.811Z,1.67
2023-04-03T04:57:45.732Z,1.90
2023-04-03T05:00:17.073Z,1.90
2023-04-03T05:02:47.793Z,1.90
2023-04-03T05:05:18.535Z,1.90
2023-04-03T05:07:49.133Z,2.23
2023-04-03T05:10:19.832Z,1.60
2023-04-03T05:12:51.985Z,1.80
2023-04-03T05:15:23.058Z,2.00
2023-04-03T05:17:53.862Z,1.50
2023-04-03T05:20:24.720Z,1.50
2023-04-03T05:22:55.449Z,1.80
2023-04-03T05:25:27.142Z,1.70
2023-04-03T05:27:59.009Z,2.10
2023-04-03T05:30:29.592Z,1.87
2023-04-03T05:33:01.371Z,1.77
2023-04-03T05:35:31.968Z,1.90
2023-04-03T05:38:04.059Z,1.72
2023-04-03T05:40:34.631Z,1.63
2023-04-03T05:43:06.638Z,1.80
2023-04-03T05:45:37.293Z,2.40
2023-04-03T05:48:08.207Z,1.80
2023-04-03T05:50:43.469Z,1.80
2023-04-03T05:53:16.926Z,2.15
2023-04-03T05:55:49.101Z,2.15
2023-04-03T05:58:19.748Z,2.10
2023-04-03T06:00:52.237Z,2.33
2023-04-03T06:03:24.332Z,1.60
2023-04-03T06:05:55.408Z,2.30
2023-04-03T06:08:26.136Z,2.60
2023-04-03T06:10:57.269Z,2.52
2023-04-03T06:13:27.962Z,2.58
2023-04-03T06:15:59.363Z,2.62
2023-04-03T06:18:29.755Z,3.08
2023-04-03T06:21:01.721Z,2.58
2023-04-03T06:23:33.694Z,2.50
2023-04-03T06:26:04.580Z,1.80
2023-04-03T06:28:35.457Z,2.73
2023-04-03T06:31:06.198Z,2.63
2023-04-03T06:33:36.770Z,2.00
2023-04-03T06:36:08.719Z,2.40
2023-04-03T06:38:39.322Z,2.67
2023-04-03T06:41:10.354Z,2.40
2023-04-03T06:43:40.932Z,2.80
2023-04-03T06:46:17.571Z,2.80
2023-04-03T06:48:48.216Z,2.87
2023-04-03T06:51:27.654Z,2.97
2023-04-03T06:54:01.276Z,3.07
2023-04-03T06:56:31.893Z,2.63
2023-04-03T06:59:03.150Z,2.27
2023-04-03T07:01:33.907Z,1.90
2023-04-03T07:04:04.619Z,2.00
2023-04-03T07:06:35.412Z,2.43
2023-04-03T07:09:05.933Z,2.40
2023-04-03T07:11:37.110Z,2.20
2023-04-03T07:14:08.672Z,2.50
2023-04-03T07:16:41.000Z,2.07
2023-04-03T07:19:11.668Z,2.13
2023-04-03T07:21:42.898Z,2.70
2023-04-03T07:24:16.190Z,1.80
2023-04-03T07:26:47.522Z,2.00
2023-04-03T07:29:17.946Z,1.90
2023-04-03T07:31:49.082Z,2.10
2023-04-03T07:34:19.862Z,1.73
2023-04-03T07:36:51.017Z,1.70
2023-04-03T07:39:21.763Z,1.50
2023-04-03T07:41:57.282Z,1.47
2023-04-03T07:44:30.878Z,1.40
2023-04-03T07:47:02.960Z,1.30
2023-04-03T07:49:34.106Z,1.60
2023-04-03T07:52:05.032Z,1.77
2023-04-03T07:54:37.453Z,1.97
2023-04-03T07:57:08.111Z,1.87
2023-04-03T07:59:38.610Z,2.23
2023-04-03T08:02:12.276Z,1.90
2023-04-03T08:04:44.337Z,1.50
2023-04-03T08:07:15.221Z,1.80
2023-04-03T08:09:46.765Z,1.53
2023-04-03T08:12:17.413Z,1.80
2023-04-03T08:14:48.160Z,2.20
2023-04-03T08:17:18.553Z,1.90
2023-04-03T08:19:49.649Z,1.90
2023-04-03T08:22:20.261Z,2.20
2023-04-03T08:24:58.485Z,2.07
2023-04-03T08:27:23.024Z,1.83
2023-04-03T08:29:53.670Z,2.00
2023-04-03T08:32:25.145Z,2.17
2023-04-03T08:34:55.901Z,1.73
2023-04-03T08:37:27.580Z,1.93
2023-04-03T08:40:02.229Z,1.67
2023-04-03T08:42:55.495Z,2.00
2023-04-03T08:45:32.036Z,1.80
2023-04-03T08:48:09.862Z,1.70
2023-04-03T08:50:44.539Z,1.60
2023-04-03T08:53:18.072Z,1.70
2023-04-03T08:55:54.113Z,2.23
2023-04-03T08:58:30.926Z,1.80
2023-04-03T09:01:05.181Z,1.55
2023-04-03T09:03:38.869Z,2.00
2023-04-03T09:06:15.118Z,1.70
2023-04-03T09:09:07.225Z,1.70
2023-04-03T09:11:58.726Z,1.70
2023-04-03T09:14:53.053Z,2.20
2023-04-03T09:17:35.329Z,1.50
2023-04-03T09:20:25.226Z,1.75
2023-04-03T09:22:57.049Z,1.70
2023-04-03T09:25:34.581Z,2.07
2023-04-03T09:28:07.565Z,1.83
2023-04-03T09:30:39.915Z,2.10
2023-04-03T09:33:11.701Z,1.70
2023-04-03T09:35:48.027Z,1.80
2023-04-03T09:38:18.978Z,1.93
2023-04-03T09:40:52.671Z,1.50
2023-04-03T09:43:26.019Z,1.90
2023-04-03T09:45:58.387Z,2.17
2023-04-03T09:48:29.062Z,3.23
2023-04-03T09:51:02.806Z,2.10
2023-04-03T09:53:44.455Z,2.63
2023-04-03T09:56:23.660Z,2.17
2023-04-03T09:59:02.846Z,1.63
2023-04-03T10:01:36.312Z,1.60
2023-04-03T10:04:18.267Z,1.73
2023-04-03T10:06:53.760Z,1.77
2023-04-03T10:09:33.870Z,1.50
2023-04-03T10:12:07.985Z,1.80
2023-04-03T10:14:42.158Z,1.82
2023-04-03T10:17:21.874Z,1.70
2023-04-03T10:20:01.333Z,1.83
2023-04-03T10:22:46.678Z,2.50
2023-04-03T10:25:36.461Z,2.40
2023-04-03T10:28:13.999Z,1.90
2023-04-03T10:31:16.586Z,1.97
2023-04-03T10:33:59.329Z,1.20
2023-04-03T10:36:32.922Z,1.60
2023-04-03T10:39:15.671Z,1.57
2023-04-03T10:42:15.706Z,1.50
2023-04-03T10:45:07.605Z,1.80
2023-04-03T10:47:57.396Z,1.97
2023-04-03T10:50:50.105Z,1.92
2023-04-03T10:53:28.070Z,1.97
2023-04-03T10:56:10.276Z,1.37
2023-04-03T10:58:49.280Z,1.50
2023-04-03T11:01:23.502Z,2.10
2023-04-03T11:03:57.502Z,1.67
2023-04-03T11:06:43.322Z,1.95
2023-04-03T11:09:22.548Z,1.67
2023-04-03T11:12:02.120Z,1.70
2023-04-03T11:14:38.337Z,1.22
2023-04-03T11:17:24.338Z,2.15
2023-04-03T11:20:01.410Z,1.70
2023-04-03T11:22:39.069Z,1.53
2023-04-03T11:25:12.645Z,1.40
2023-04-03T11:27:50.575Z,1.50
2023-04-03T11:30:42.721Z,1.42
2023-04-03T11:33:23.733Z,1.53
2023-04-03T11:35:59.851Z,1.90
2023-04-03T11:38:35.018Z,1.70
2023-04-03T11:41:08.316Z,1.60
2023-04-03T11:43:45.103Z,1.77
2023-04-03T11:46:19.072Z,1.80
2023-04-03T11:48:52.151Z,1.30
2023-04-03T11:51:42.583Z,1.20
2023-04-03T11:54:44.527Z,1.85
2023-04-03T11:57:45.429Z,1.70
2023-04-03T12:00:50.850Z,1.80
2023-04-03T12:03:33.099Z,1.80
2023-04-03T12:06:14.086Z,1.80
2023-04-03T12:08:47.847Z,1.70
2023-04-03T12:11:27.556Z,1.50
2023-04-03T12:14:02.585Z,2.07
2023-04-03T12:16:41.769Z,1.77
2023-04-03T12:19:41.030Z,1.90
2023-04-03T12:22:05.047Z,1.83
2023-04-03T12:24:40.183Z,1.90
2023-04-03T12:27:29.690Z,1.80
2023-04-03T12:30:07.851Z,1.47
2023-04-03T12:32:45.998Z,1.77
2023-04-03T12:35:35.394Z,1.97
2023-04-03T12:38:43.385Z,1.60
2023-04-03T12:41:34.974Z,2.10
2023-04-03T12:44:14.325Z,1.77
2023-04-03T12:46:48.345Z,1.98
2023-04-03T12:49:45.992Z,2.00
2023-04-03T12:52:26.861Z,1.10
2023-04-03T12:55:00.000Z,1.60
2023-04-03T12:57:31.000Z,1.73
2023-04-03T13:00:02.489Z,1.40
2023-04-03T13:02:38.401Z,1.40
2023-04-03T13:05:13.765Z,1.33
2023-04-03T13:07:44.739Z,1.47
2023-04-03T13:10:18.278Z,1.70
2023-04-03T13:13:03.856Z,1.60
2023-04-03T13:15:44.406Z,1.40
2023-04-03T13:18:33.331Z,1.55
2023-04-03T13:21:06.987Z,1.35
2023-04-03T13:23:40.676Z,1.45
2023-04-03T13:26:12.899Z,1.60
2023-04-03T13:28:47.683Z,1.37
2023-04-03T13:31:31.649Z,1.60
2023-04-03T13:34:17.527Z,2.07
2023-04-03T13:36:55.117Z,1.53
2023-04-03T13:39:30.134Z,1.90
2023-04-03T13:42:04.048Z,1.80
2023-04-03T13:44:37.477Z,1.93
2023-04-03T13:47:21.072Z,2.53
2023-04-03T13:50:06.918Z,1.85
2023-04-03T13:52:43.344Z,1.70
2023-04-03T13:55:29.639Z,1.22
2023-04-03T13:58:14.146Z,1.50
2023-04-03T14:00:54.015Z,1.60
2023-04-03T14:03:42.743Z,1.70
2023-04-03T14:06:16.478Z,1.72
2023-04-03T14:08:49.916Z,1.87
2023-04-03T14:11:30.033Z,1.57
2023-04-03T14:14:07.713Z,1.53
2023-04-03T14:16:41.912Z,1.67
2023-04-03T14:19:15.821Z,1.90
2023-04-03T14:21:46.325Z,1.83
2023-04-03T14:24:19.165Z,1.70
2023-04-03T14:26:52.051Z,2.20
2023-04-03T14:29:25.575Z,1.70
2023-04-03T14:32:11.562Z,1.65
2023-04-03T14:34:28.994Z,1.63
2023-04-03T14:36:59.867Z,1.80
2023-04-03T14:39:33.230Z,1.70
2023-04-03T14:42:03.960Z,2.17
2023-04-03T14:44:35.666Z,1.70
2023-04-03T14:47:08.368Z,2.00
2023-04-03T14:49:40.396Z,1.70
2023-04-03T14:52:24.593Z,1.67
2023-04-03T14:54:57.166Z,2.23
2023-04-03T14:57:31.823Z,1.70
2023-04-03T15:00:04.592Z,1.50
2023-04-03T15:02:40.282Z,1.70
2023-04-03T15:05:12.704Z,1.60
2023-04-03T15:07:49.895Z,1.80
2023-04-03T15:10:26.262Z,1.90
2023-04-03T15:12:57.588Z,1.63
2023-04-03T15:15:30.674Z,2.13
2023-04-03T15:18:01.622Z,1.73
2023-04-03T15:20:34.237Z,2.00
2023-04-03T15:23:05.910Z,2.10
2023-04-03T15:25:38.877Z,2.20
2023-04-03T15:28:12.746Z,2.20
2023-04-03T15:30:43.773Z,1.90
2023-04-03T15:33:16.891Z,1.90
2023-04-03T15:35:47.509Z,2.00
2023-04-03T15:38:18.402Z,1.60
2023-04-03T15:40:50.603Z,1.60
2023-04-03T15:43:21.130Z,1.80
2023-04-03T15:45:52.233Z,1.97
2023-04-03T15:51:33.507Z,1.40
2023-04-03T15:54:04.231Z,1.70
2023-04-03T15:56:37.837Z,1.87
2023-04-03T15:59:08.439Z,1.60
2023-04-03T16:01:43.221Z,1.97
2023-04-03T16:04:15.604Z,1.70
2023-04-03T16:06:47.490Z,2.30
2023-04-03T16:09:18.915Z,1.80
2023-04-03T16:11:49.604Z,1.73
2023-04-03T16:14:20.178Z,2.08
2023-04-03T16:16:51.012Z,1.70
2023-04-03T16:19:26.295Z,1.67
2023-04-03T16:21:58.763Z,2.00
2023-04-03T16:24:29.286Z,2.03
2023-04-03T16:27:02.617Z,1.93
2023-04-03T16:29:33.249Z,1.83
2023-04-03T16:32:05.658Z,1.70
2023-04-03T16:34:36.363Z,1.75
2023-04-03T16:37:08.826Z,2.03
2023-04-03T16:39:39.473Z,2.27
2023-04-03T16:42:10.672Z,1.80
2023-04-03T16:44:41.050Z,2.02
2023-04-03T16:47:12.041Z,2.00
2023-04-03T16:49:42.964Z,2.27
2023-04-03T16:52:13.687Z,2.87
2023-04-03T16:54:44.254Z,2.67
2023-04-03T16:57:14.828Z,2.30
2023-04-03T16:59:45.322Z,2.60
2023-04-03T17:02:17.470Z,2.27
2023-04-03T17:04:49.521Z,3.10
2023-04-03T17:07:22.433Z,1.73
2023-04-03T17:09:54.640Z,2.08
2023-04-03T17:12:25.556Z,2.30
2023-04-03T17:14:56.046Z,1.67
2023-04-03T17:17:27.153Z,2.07
2023-04-03T17:19:58.140Z,2.30
2023-04-03T17:22:30.086Z,2.30
2023-04-03T17:25:01.003Z,2.20
2023-04-03T17:27:32.113Z,2.40
2023-04-03T17:30:02.866Z,2.60
2023-04-03T17:32:33.795Z,2.30
2023-04-03T17:35:04.478Z,1.90
2023-04-03T17:37:35.005Z,1.60
2023-04-03T17:40:07.396Z,1.75
2023-04-03T17:42:37.896Z,2.30
2023-04-03T17:45:10.645Z,2.43
2023-04-03T17:47:42.791Z,2.60
2023-04-03T17:50:15.221Z,2.77
2023-04-03T17:52:46.961Z,2.93
2023-04-03T17:55:17.922Z,3.07
2023-04-03T17:57:50.874Z,2.87
2023-04-03T18:00:21.595Z,2.10
2023-04-03T18:03:00.653Z,2.33
2023-04-03T18:05:31.380Z,2.27
2023-04-03T18:08:04.138Z,1.90
2023-04-03T18:10:37.650Z,1.93
2023-04-03T18:13:09.466Z,2.17
2023-04-03T18:15:42.131Z,2.10
2023-04-03T18:18:12.794Z,2.67
2023-04-03T18:20:45.121Z,2.60
2023-04-03T18:23:15.819Z,3.60
2023-04-03T18:25:48.312Z,2.90
2023-04-03T18:28:19.031Z,3.03
2023-04-03T18:30:51.373Z,3.00
2023-04-03T18:33:21.978Z,3.13
2023-04-03T18:35:52.642Z,2.70
2023-04-03T18:38:23.450Z,2.30
2023-04-03T18:40:55.486Z,2.20
2023-04-03T18:43:29.050Z,1.87
2023-04-03T18:45:59.725Z,3.50
2023-04-03T18:48:31.282Z,2.60
2023-04-03T18:51:02.716Z,2.63
2023-04-03T18:53:33.317Z,2.00
2023-04-03T18:56:05.135Z,1.80
2023-04-03T18:58:35.746Z,1.90
2023-04-03T19:01:06.950Z,2.50
2023-04-03T19:03:38.257Z,2.20
2023-04-03T19:06:08.829Z,2.00
2023-04-03T19:09:10.684Z,3.10
2023-04-03T19:11:50.447Z,3.70
2023-04-03T19:14:21.659Z,3.70
2023-04-03T19:16:53.335Z,3.70
2023-04-03T19:19:23.941Z,3.13
2023-04-03T19:21:54.553Z,2.60
2023-04-03T19:24:25.270Z,2.23
2023-04-03T19:26:57.104Z,2.80
2023-04-03T19:29:28.934Z,1.97
2023-04-03T19:32:00.306Z,2.40
2023-04-03T19:34:32.506Z,2.20
2023-04-03T19:37:05.053Z,2.63
2023-04-03T19:39:37.388Z,2.17
2023-04-03T19:42:08.676Z,2.33
2023-04-03T19:44:41.785Z,2.30
2023-04-03T19:47:15.523Z,2.20
2023-04-03T19:49:46.581Z,1.90
2023-04-03T19:52:17.009Z,2.60
2023-04-03T19:54:47.563Z,2.27
2023-04-03T19:57:18.226Z,2.93
2023-04-03T19:59:48.795Z,2.33
2023-04-03T20:02:22.411Z,2.20
2023-04-03T20:04:53.146Z,2.30
2023-04-03T20:07:25.024Z,2.20
2023-04-03T20:09:55.514Z,2.03
2023-04-03T20:12:26.236Z,2.27
2023-04-03T20:14:58.434Z,2.53
2023-04-03T20:17:29.534Z,2.60
2023-04-03T20:20:01.711Z,2.40
2023-04-03T20:22:33.252Z,2.27
2023-04-03T20:25:06.961Z,2.33
2023-04-03T20:27:39.682Z,2.50
2023-04-03T20:30:15.573Z,2.40
2023-04-03T20:32:46.208Z,2.27
2023-04-03T20:35:17.299Z,2.63
2023-04-03T20:37:48.673Z,2.33
2023-04-03T20:40:19.276Z,2.37
2023-04-03T20:42:52.108Z,2.10
2023-04-03T20:45:24.261Z,2.57
2023-04-03T20:47:56.285Z,2.30
2023-04-03T20:50:29.955Z,2.60
2023-04-03T20:53:03.259Z,2.37
2023-04-03T20:55:34.403Z,2.90
2023-04-03T20:58:06.469Z,3.13
2023-04-03T21:00:38.245Z,3.00
2023-04-03T21:03:10.628Z,2.80
2023-04-03T21:05:43.088Z,2.30
2023-04-03T21:08:49.402Z,2.13
2023-04-03T21:11:56.102Z,2.37
2023-04-03T21:15:02.522Z,2.17
2023-04-03T21:17:33.298Z,2.20
2023-04-03T21:20:05.337Z,2.03
2023-04-03T21:22:38.440Z,2.83
2023-04-03T21:25:12.236Z,2.40
2023-04-03T21:27:42.804Z,2.60
2023-04-03T21:30:15.604Z,2.60
2023-04-03T21:32:47.520Z,2.23
2023-04-03T21:35:19.878Z,1.90
2023-04-03T21:37:51.066Z,2.53
2023-04-03T21:40:23.138Z,2.60
2023-04-03T21:42:58.532Z,2.50
2023-04-03T21:45:32.078Z,3.37
2023-04-03T21:48:03.739Z,2.50
2023-04-03T21:50:37.066Z,2.77
2023-04-03T21:53:09.761Z,3.00
2023-04-03T21:55:40.369Z,2.90
2023-04-03T21:58:11.057Z,3.13
2023-04-03T22:00:43.221Z,2.40
2023-04-03T22:03:15.891Z,2.63
2023-04-03T22:05:46.444Z,2.73
2023-04-03T22:08:17.912Z,2.53
2023-04-03T22:10:49.414Z,2.60
2023-04-03T22:13:20.121Z,2.60
2023-04-03T22:15:51.391Z,2.70
2023-04-03T22:18:23.856Z,2.73
2023-04-03T22:20:56.025Z,3.37
2023-04-03T22:23:27.384Z,3.60
2023-04-03T22:26:08.845Z,2.40
2023-04-03T22:28:42.249Z,2.90
2023-04-03T22:31:17.260Z,2.80
2023-04-03T22:33:48.109Z,2.53
2023-04-03T22:36:19.782Z,2.57
2023-04-03T22:38:50.474Z,2.80
2023-04-03T22:41:21.070Z,2.20
2023-04-03T22:43:51.695Z,2.43
2023-04-03T22:46:24.052Z,3.00
2023-04-03T22:48:57.052Z,2.63
2023-04-03T22:51:27.646Z,2.60
2023-04-03T22:53:58.181Z,2.60
2023-04-03T22:56:30.287Z,3.20
2023-04-03T22:59:00.843Z,2.80
2023-04-03T23:01:31.487Z,2.43
2023-04-03T23:04:02.123Z,2.63
2023-04-03T23:06:32.719Z,2.67
2023-04-03T23:09:03.280Z,2.80
2023-04-03T23:11:35.424Z,2.90
2023-04-03T23:14:06.291Z,2.83
2023-04-03T23:16:36.999Z,2.77
2023-04-03T23:19:08.324Z,3.07
2023-04-03T23:21:42.890Z,2.90
2023-04-03T23:24:15.833Z,2.20
2023-04-03T23:26:49.152Z,2.47
2023-04-03T23:29:20.794Z,2.57
2023-04-03T23:31:54.575Z,2.50
2023-04-03T23:34:26.045Z,2.57
2023-04-03T23:36:56.769Z,3.10
2023-04-03T23:39:28.519Z,3.20
2023-04-03T23:41:59.864Z,3.03
2023-04-03T23:44:32.568Z,2.60
2023-04-03T23:47:06.804Z,2.80
2023-04-03T23:49:38.342Z,3.20
2023-04-03T23:52:08.847Z,9.00
2023-04-03T23:54:39.642Z,4.43
2023-04-03T23:57:10.183Z,3.37
2023-04-03T23:59:42.574Z,3.60
